»·PEaware :: ASA419 KPDX-KSFO

ASA419 :: KPDX-KSFO

FLIGHT INFORMATION

Flight Status: Arrived
Operator:
Alaska Airlines
More flights by this operator :: More flights under this callsign
Pilot: David J. (16724)
Aircraft: AIRBUS A320
(A320)
More flights by this aircraft type
Origin: KPDX Portland Intl
United States
Destination: KSFO San Francisco Intl
United States
More flights between these airports :: More routes between these airports
Route: MINNE5 EASON Q1 ETCHY MLBEC BDEGA2
File this flight plan on PilotEdge
Remarks:
Altitude:
(Current/Filed)
39,000ft
Speed:
(Current/Filed)
450kts
Departed: 14-Jul-18 10:27 AM
Arrived: 14-Jul-18 11:57 AM
Distance/Time
Traveled:
478nm/1:30
Distance/Time
To Go:
Arrived

Flight Plot

Page will automatically refresh every two minutes.


Map Options




Map Legend


Flown Route
Filed Route
Departure Airport
Arrival Airport
Navaid (VOR, NDB)
Fix

Horizontal Profiles

Position Reports

Time Latitude Longitude Heading Altitude Ground
Speed
14-Jul-18 09:53 45.589631 -122.596900 203 38ft 0kts
14-Jul-18 09:54 45.589631 -122.596900 203 38ft 0kts
14-Jul-18 09:55 45.589631 -122.596900 203 38ft 0kts
14-Jul-18 09:56 45.589631 -122.596900 203 38ft 0kts
14-Jul-18 09:57 45.589631 -122.596900 203 38ft 0kts
14-Jul-18 09:58 45.589631 -122.596900 203 38ft 0kts
14-Jul-18 09:59 45.589631 -122.596900 203 38ft 0kts
14-Jul-18 10:00 45.589631 -122.596900 203 38ft 0kts
14-Jul-18 10:01 45.589631 -122.596900 203 38ft 0kts
14-Jul-18 10:02 45.589631 -122.596900 203 38ft 0kts
14-Jul-18 10:03 45.589631 -122.596900 203 38ft 0kts
14-Jul-18 10:04 45.589631 -122.596900 203 38ft 0kts
14-Jul-18 10:05 45.589631 -122.596900 203 38ft 0kts
14-Jul-18 10:06 45.589631 -122.596900 203 38ft 0kts
14-Jul-18 10:07 45.589631 -122.596900 203 38ft 0kts
14-Jul-18 10:08 45.589631 -122.596900 203 38ft 0kts
14-Jul-18 10:09 45.589631 -122.596900 203 38ft 0kts
14-Jul-18 10:10 45.589632 -122.596900 203 38ft 0kts
14-Jul-18 10:11 45.590112 -122.596443 249 38ft 2kts
14-Jul-18 10:12 45.590066 -122.595944 298 38ft 0kts
14-Jul-18 10:13 45.590066 -122.595944 298 38ft 0kts
14-Jul-18 10:14 45.590066 -122.595944 298 38ft 0kts
14-Jul-18 10:15 45.590066 -122.595944 298 38ft 0kts
14-Jul-18 10:16 45.590066 -122.595944 298 38ft 0kts
14-Jul-18 10:17 45.590074 -122.595965 298 38ft 0kts
14-Jul-18 10:18 45.590859 -122.597990 299 38ft 0kts
14-Jul-18 10:19 45.590911 -122.598120 299 38ft 2kts
14-Jul-18 10:20 45.591376 -122.599865 270 38ft 7kts
14-Jul-18 10:21 45.589722 -122.601713 169 38ft 9kts
14-Jul-18 10:22 45.588163 -122.598193 119 38ft 12kts
14-Jul-18 10:23 45.586228 -122.593632 129 38ft 15kts
14-Jul-18 10:24 45.584184 -122.589915 124 38ft 15kts
14-Jul-18 10:25 45.581881 -122.584199 118 38ft 14kts
14-Jul-18 10:26 45.581604 -122.583712 150 38ft 0kts
14-Jul-18 10:27 45.580766 -122.584527 295 38ft 1kts
14-Jul-18 10:28 45.599196 -122.630436 300 1487ft 209kts
14-Jul-18 10:29 45.633461 -122.710942 299 4715ft 265kts
14-Jul-18 10:30 45.670967 -122.818808 271 8868ft 280kts
14-Jul-18 10:31 45.646510 -122.904362 222 11233ft 314kts
14-Jul-18 10:32 45.557985 -122.930530 186 13824ft 348kts
14-Jul-18 10:33 45.463354 -122.940857 186 15036ft 351kts
14-Jul-18 10:34 45.366855 -122.951966 186 15043ft 353kts
14-Jul-18 10:35 45.270163 -122.963203 186 15044ft 353kts
14-Jul-18 10:36 45.175215 -122.992551 201 16755ft 362kts
14-Jul-18 10:37 45.079733 -123.040605 201 19141ft 374kts
14-Jul-18 10:38 44.981349 -123.089944 201 21357ft 384kts
14-Jul-18 10:39 44.881616 -123.139805 201 23274ft 394kts
14-Jul-18 10:40 44.780550 -123.190152 201 24990ft 404kts
14-Jul-18 10:41 44.675468 -123.242297 201 26581ft 413kts
14-Jul-18 10:42 44.566802 -123.296011 201 28044ft 422kts
14-Jul-18 10:43 44.451965 -123.327303 180 29342ft 435kts
14-Jul-18 10:44 44.331136 -123.322147 180 30554ft 442kts
14-Jul-18 10:45 44.209075 -123.317245 180 31641ft 449kts
14-Jul-18 10:46 44.085113 -123.312305 180 32599ft 455kts
14-Jul-18 10:47 43.962733 -123.307424 180 33821ft 451kts
14-Jul-18 10:48 43.846478 -123.302829 180 34838ft 449kts
14-Jul-18 10:49 43.725752 -123.298080 180 35810ft 447kts
14-Jul-18 10:50 43.603300 -123.293285 180 36702ft 446kts
14-Jul-18 10:51 43.482376 -123.288569 180 37427ft 446kts
14-Jul-18 10:52 43.361779 -123.283884 180 38056ft 446kts
14-Jul-18 10:53 43.239983 -123.279168 180 38610ft 446kts
14-Jul-18 10:54 43.117942 -123.274460 180 39099ft 446kts
14-Jul-18 10:55 42.994889 -123.269730 180 39254ft 447kts
14-Jul-18 10:56 42.873141 -123.265083 180 39251ft 450kts
14-Jul-18 10:57 42.758167 -123.260680 180 39240ft 447kts
14-Jul-18 10:58 42.634373 -123.255980 180 39228ft 446kts
14-Jul-18 10:59 42.510765 -123.251307 180 39221ft 446kts
14-Jul-18 11:00 42.387102 -123.246699 180 39224ft 447kts
14-Jul-18 11:01 42.264051 -123.242145 180 39224ft 447kts
14-Jul-18 11:02 42.140705 -123.237564 180 39223ft 447kts
14-Jul-18 11:03 42.019143 -123.233280 180 39222ft 446kts
14-Jul-18 11:04 41.898484 -123.228831 181 39214ft 442kts
14-Jul-18 11:05 41.790376 -123.224901 181 39238ft 443kts
14-Jul-18 11:06 41.670212 -123.220543 181 39242ft 443kts
14-Jul-18 11:07 41.549132 -123.216259 181 39240ft 443kts
14-Jul-18 11:08 41.430798 -123.212169 181 39243ft 443kts
14-Jul-18 11:09 41.309816 -123.208136 181 39242ft 442kts
14-Jul-18 11:10 41.187661 -123.205119 181 39243ft 442kts
14-Jul-18 11:11 41.065631 -123.202039 182 39220ft 442kts
14-Jul-18 11:12 40.943712 -123.198958 183 39165ft 439kts
14-Jul-18 11:13 40.831959 -123.196153 183 39150ft 437kts
14-Jul-18 11:14 40.713126 -123.193185 183 39139ft 437kts
14-Jul-18 11:15 40.592886 -123.190190 183 39141ft 437kts
14-Jul-18 11:16 40.472243 -123.187192 183 39144ft 437kts
14-Jul-18 11:17 40.352005 -123.184215 183 39145ft 437kts
14-Jul-18 11:18 40.231613 -123.181243 183 39149ft 437kts
14-Jul-18 11:19 40.111207 -123.178285 183 39161ft 437kts
14-Jul-18 11:20 39.990317 -123.175325 183 39187ft 437kts
14-Jul-18 11:21 39.873347 -123.170674 182 39188ft 438kts
14-Jul-18 11:22 39.755165 -123.165125 182 39191ft 438kts
14-Jul-18 11:23 39.636026 -123.159620 182 39191ft 438kts
14-Jul-18 11:24 39.520668 -123.154314 182 39189ft 438kts
14-Jul-18 11:25 39.399646 -123.148772 182 39185ft 438kts
14-Jul-18 11:26 39.279581 -123.143256 182 38938ft 427kts
14-Jul-18 11:27 39.163271 -123.137974 182 37994ft 424kts
14-Jul-18 11:28 39.050106 -123.101653 153 36393ft 439kts
14-Jul-18 11:29 38.947743 -123.018168 152 33859ft 443kts
14-Jul-18 11:30 38.846660 -122.950708 170 31711ft 426kts
14-Jul-18 11:31 38.745008 -122.920510 170 29996ft 413kts
14-Jul-18 11:32 38.636977 -122.888550 170 28123ft 398kts
14-Jul-18 11:33 38.535320 -122.858594 169 26317ft 385kts
14-Jul-18 11:34 38.433852 -122.828743 169 24470ft 371kts
14-Jul-18 11:35 38.336521 -122.800196 168 22659ft 358kts
14-Jul-18 11:36 38.242003 -122.772552 168 20869ft 347kts
14-Jul-18 11:37 38.150756 -122.745985 167 19117ft 336kts
14-Jul-18 11:38 38.061170 -122.719992 167 17333ft 330kts
14-Jul-18 11:39 37.973255 -122.694538 167 15645ft 323kts
14-Jul-18 11:40 37.891600 -122.664704 143 13991ft 318kts
14-Jul-18 11:41 37.827031 -122.596496 139 12401ft 311kts
14-Jul-18 11:42 37.764986 -122.530695 140 11290ft 293kts
14-Jul-18 11:43 37.704110 -122.466189 139 11045ft 293kts
14-Jul-18 11:44 37.644986 -122.403335 139 11038ft 292kts
14-Jul-18 11:45 37.581800 -122.350279 154 11037ft 292kts
14-Jul-18 11:46 37.521230 -122.313175 154 10306ft 310kts
14-Jul-18 11:47 37.474717 -122.243379 114 9108ft 291kts
14-Jul-18 11:48 37.447619 -122.163945 113 8212ft 263kts
14-Jul-18 11:49 37.422803 -122.084672 89 6964ft 263kts
14-Jul-18 11:50 37.464347 -122.040096 345 5845ft 253kts
14-Jul-18 11:51 37.502146 -122.087023 303 4537ft 231kts
14-Jul-18 11:52 37.525255 -122.154150 300 3108ft 187kts
14-Jul-18 11:53 37.547319 -122.204680 297 2749ft 187kts
14-Jul-18 11:54 37.567005 -122.251737 298 1879ft 127kts
14-Jul-18 11:55 37.583460 -122.291009 297 1225ft 125kts
14-Jul-18 11:56 37.598647 -122.327238 297 604ft 123kts
14-Jul-18 11:57 37.614312 -122.364583 297 23ft 111kts
14-Jul-18 11:58 37.618958 -122.377089 271 22ft 20kts
14-Jul-18 11:59 37.618931 -122.378866 268 22ft 10kts
14-Jul-18 12:00 37.618620 -122.382321 142 22ft 6kts

Navigation Log

Ident Type
1. KPDX Airport
2. EASON Fix
3. EBINY Fix
4. ENVIE Fix
5. ETCHY Fix
6. KSFO Airport